Time;durP1;ratioP1;P1;durP2;ratioP2;P2;SDS_P1;SDS_P2;PMS_P1;PMS_P2;Temp;Humidity;BMP_temperature;BMP_pressure;BME280_temperature;BME280_humidity;BME280_pressure;Samples;Min_cycle;Max_cycle;Signal;HPM_P1;HPM_P2
2023/08/05 00:01:25;;;;;;;2.30;1.23;;;16.50;99.90;;;;;;4923550;28;20037;-76
2023/08/05 00:03:51;;;;;;;2.63;1.02;;;16.50;99.90;;;;;;4921702;28;20536;-76
2023/08/05 00:06:18;;;;;;;5.00;1.17;;;16.50;99.90;;;;;;4938255;28;20498;-78
2023/08/05 00:08:45;;;;;;;2.33;1.30;;;16.50;99.90;;;;;;4920195;28;20027;-78
2023/08/05 00:11:11;;;;;;;3.80;1.42;;;16.50;99.90;;;;;;4954325;28;20509;-76
2023/08/05 00:13:37;;;;;;;3.20;1.17;;;16.50;99.90;;;;;;4951295;28;20035;-77
2023/08/05 00:16:07;;;;;;;3.25;1.30;;;16.40;99.90;;;;;;4956796;28;20034;-77
2023/08/05 00:18:33;;;;;;;2.17;1.00;;;16.40;99.90;;;;;;4942280;28;20053;-77
2023/08/05 00:21:00;;;;;;;2.22;0.98;;;16.40;99.90;;;;;;4940596;28;20366;-76
2023/08/05 00:23:26;;;;;;;2.10;1.10;;;16.40;99.90;;;;;;4959053;28;20046;-78
2023/08/05 00:25:52;;;;;;;3.60;1.27;;;16.40;99.90;;;;;;4948797;28;20037;-77
2023/08/05 00:28:19;;;;;;;4.13;2.20;;;16.40;99.90;;;;;;4937399;28;20038;-77
2023/08/05 00:30:45;;;;;;;3.33;1.30;;;16.40;99.90;;;;;;4938522;28;20031;-77
2023/08/05 00:33:11;;;;;;;2.15;0.98;;;16.30;99.90;;;;;;4922097;28;20030;-76
2023/08/05 00:35:40;;;;;;;3.85;1.20;;;16.30;99.90;;;;;;4939907;28;20034;-78
2023/08/05 00:38:06;;;;;;;2.53;1.08;;;16.30;99.90;;;;;;4935707;28;20042;-77
2023/08/05 00:40:32;;;;;;;2.95;1.33;;;16.30;99.90;;;;;;4934392;28;20039;-75
2023/08/05 00:43:00;;;;;;;4.20;1.20;;;16.30;99.90;;;;;;4953858;28;20022;-77
2023/08/05 00:45:27;;;;;;;4.25;1.42;;;16.30;99.90;;;;;;4922631;28;20046;-78
2023/08/05 00:47:53;;;;;;;3.35;1.80;;;16.30;99.90;;;;;;4951514;28;20030;-77
2023/08/05 00:50:22;;;;;;;2.72;1.23;;;16.30;99.90;;;;;;4939527;28;20517;-76
2023/08/05 00:52:50;;;;;;;3.75;1.30;;;16.30;99.90;;;;;;4936392;28;20031;-75
2023/08/05 00:55:17;;;;;;;2.03;1.13;;;16.30;99.90;;;;;;4952481;28;20031;-77
2023/08/05 00:57:43;;;;;;;2.63;1.35;;;16.30;99.90;;;;;;4936155;28;20567;-78
2023/08/05 01:00:10;;;;;;;2.25;1.05;;;16.30;99.90;;;;;;4936721;28;20031;-76
2023/08/05 01:02:36;;;;;;;3.05;1.55;;;16.30;99.90;;;;;;4937247;28;20046;-76
2023/08/05 01:05:03;;;;;;;2.17;1.00;;;16.40;99.90;;;;;;4941066;28;20026;-76
2023/08/05 01:07:32;;;;;;;4.00;2.05;;;16.40;99.90;;;;;;4934192;28;20043;-78
2023/08/05 01:09:59;;;;;;;3.47;1.63;;;16.40;99.90;;;;;;4938695;28;20046;-76
2023/08/05 01:12:25;;;;;;;2.20;1.15;;;16.40;99.90;;;;;;4937972;28;20831;-78
2023/08/05 01:14:51;;;;;;;3.25;1.52;;;16.40;99.90;;;;;;4935953;28;20042;-78
2023/08/05 01:17:17;;;;;;;2.35;1.20;;;16.40;99.90;;;;;;4938524;28;20031;-77
2023/08/05 01:19:45;;;;;;;5.95;2.60;;;16.40;99.90;;;;;;4954043;28;20655;-76
2023/08/05 01:22:30;;;;;;;2.50;1.50;;;16.30;99.90;;;;;;4934860;28;20039;-77
2023/08/05 01:25:22;;;;;;;4.50;1.30;;;16.30;99.90;;;;;;4937044;28;20035;-77
2023/08/05 01:27:52;;;;;;;2.88;1.30;;;16.30;99.90;;;;;;4937940;28;20037;-77
2023/08/05 01:30:18;;;;;;;4.57;1.40;;;16.30;99.90;;;;;;4923366;28;20038;-77
2023/08/05 01:32:45;;;;;;;2.45;1.10;;;16.20;99.90;;;;;;4938272;28;20038;-76
2023/08/05 01:35:11;;;;;;;1.73;1.02;;;16.10;99.90;;;;;;4964735;28;20043;-77
2023/08/05 01:37:38;;;;;;;2.47;1.00;;;16.10;99.90;;;;;;4922825;28;20042;-77
2023/08/05 01:40:05;;;;;;;3.22;1.25;;;16.10;99.90;;;;;;4946416;28;20045;-77
2023/08/05 01:42:31;;;;;;;2.83;1.23;;;16.00;99.90;;;;;;4937065;28;20042;-76
2023/08/05 01:44:58;;;;;;;2.33;1.20;;;16.00;99.90;;;;;;4953384;28;20097;-76
2023/08/05 01:47:24;;;;;;;3.47;1.95;;;15.90;99.90;;;;;;4936901;28;20042;-78
2023/08/05 01:49:50;;;;;;;2.03;1.25;;;15.90;99.90;;;;;;4936756;28;20034;-78
2023/08/05 01:52:17;;;;;;;1.90;1.10;;;15.90;99.90;;;;;;4919362;28;20482;-79
2023/08/05 01:54:43;;;;;;;2.30;1.02;;;15.90;99.90;;;;;;4931393;28;20036;-76
2023/08/05 01:57:09;;;;;;;2.28;0.98;;;15.90;99.90;;;;;;4953807;28;20031;-77
2023/08/05 01:59:36;;;;;;;3.00;1.00;;;15.90;99.90;;;;;;4920078;28;20474;-78
2023/08/05 02:02:03;;;;;;;2.67;1.30;;;15.90;99.90;;;;;;4934378;28;20023;-78
2023/08/05 02:04:30;;;;;;;2.78;1.40;;;15.90;99.90;;;;;;4920562;28;20026;-75
2023/08/05 02:06:56;;;;;;;3.55;1.42;;;15.90;99.90;;;;;;4914899;28;21397;-77
2023/08/05 02:09:23;;;;;;;4.05;1.40;;;15.90;99.90;;;;;;4944972;28;20035;-79
2023/08/05 02:11:49;;;;;;;2.47;1.15;;;16.00;99.90;;;;;;4953397;28;20549;-77
2023/08/05 02:14:16;;;;;;;2.75;1.30;;;16.00;99.90;;;;;;4937342;28;20035;-78
2023/08/05 02:16:42;;;;;;;4.32;1.83;;;16.00;99.90;;;;;;4920782;28;20031;-78
2023/08/05 02:19:08;;;;;;;5.35;1.23;;;16.00;99.90;;;;;;4939862;28;20046;-77
2023/08/05 02:21:35;;;;;;;3.03;1.77;;;16.00;99.90;;;;;;4960809;28;20657;-76
2023/08/05 02:24:09;;;;;;;2.45;1.13;;;16.00;99.90;;;;;;4956552;28;20780;-76
2023/08/05 02:26:38;;;;;;;1.73;1.17;;;16.00;99.90;;;;;;4939023;28;20042;-78
2023/08/05 02:29:05;;;;;;;3.40;1.55;;;16.00;99.90;;;;;;4939655;28;20031;-75
2023/08/05 02:31:31;;;;;;;5.03;1.30;;;16.00;99.90;;;;;;4955458;28;20054;-78
2023/08/05 02:33:57;;;;;;;1.67;1.13;;;15.90;99.90;;;;;;4965713;28;20501;-79
2023/08/05 02:36:24;;;;;;;2.08;1.30;;;15.90;99.90;;;;;;4951017;28;20473;-79
2023/08/05 02:38:50;;;;;;;2.30;1.08;;;15.90;99.90;;;;;;4960095;28;20410;-76
2023/08/05 02:41:17;;;;;;;2.42;0.93;;;15.90;99.90;;;;;;4943014;28;20023;-76
2023/08/05 02:43:43;;;;;;;3.08;1.17;;;15.90;99.90;;;;;;4927137;28;21334;-79
2023/08/05 02:46:12;;;;;;;2.67;1.30;;;15.90;99.90;;;;;;4922285;28;20030;-77
2023/08/05 02:48:39;;;;;;;3.35;1.58;;;15.90;99.90;;;;;;4953929;28;20064;-76
2023/08/05 02:51:05;;;;;;;4.38;1.58;;;15.90;99.90;;;;;;4936261;28;20039;-79
2023/08/05 02:53:31;;;;;;;1.88;1.20;;;15.90;99.90;;;;;;4942918;28;20043;-77
2023/08/05 02:55:58;;;;;;;2.47;1.40;;;15.90;99.90;;;;;;4939379;28;20050;-79
2023/08/05 02:58:25;;;;;;;4.93;1.83;;;15.90;99.90;;;;;;4938592;28;20039;-76
2023/08/05 03:00:51;;;;;;;4.03;1.50;;;15.80;99.90;;;;;;4936456;28;21782;-79
2023/08/05 03:03:17;;;;;;;2.33;1.33;;;15.80;99.90;;;;;;4941740;28;20039;-78
2023/08/05 03:05:44;;;;;;;3.15;1.75;;;15.80;99.90;;;;;;4939123;28;20038;-78
2023/08/05 03:08:11;;;;;;;4.35;1.80;;;15.80;99.90;;;;;;4939853;28;20039;-77
2023/08/05 03:10:39;;;;;;;2.85;1.45;;;15.80;99.90;;;;;;4924525;28;20493;-76
2023/08/05 03:13:06;;;;;;;1.80;1.17;;;15.80;99.90;;;;;;4922912;28;20053;-79
2023/08/05 03:15:33;;;;;;;2.85;1.38;;;15.80;99.90;;;;;;4946210;28;20051;-78
2023/08/05 03:18:08;;;;;;;3.40;1.95;;;15.80;99.90;;;;;;4922744;28;20043;-79
2023/08/05 03:20:34;;;;;;;4.90;1.45;;;15.70;99.90;;;;;;4922710;28;20038;-77
2023/08/05 03:23:07;;;;;;;3.35;1.17;;;15.70;99.90;;;;;;4928016;28;20030;-75
2023/08/05 03:25:35;;;;;;;2.47;1.33;;;15.60;99.90;;;;;;4941048;28;20394;-79
2023/08/05 03:28:04;;;;;;;4.20;0.98;;;15.60;99.90;;;;;;4940299;28;20038;-78
2023/08/05 03:30:33;;;;;;;2.30;1.50;;;15.50;99.90;;;;;;4937692;28;20609;-79
2023/08/05 03:33:00;;;;;;;2.67;1.38;;;15.50;99.90;;;;;;4964848;28;20761;-78
2023/08/05 03:35:29;;;;;;;2.38;1.35;;;15.50;99.90;;;;;;4936916;28;20049;-75
2023/08/05 03:37:57;;;;;;;3.20;1.20;;;15.40;99.90;;;;;;4938231;28;20041;-78
2023/08/05 03:40:23;;;;;;;3.03;1.60;;;15.40;99.90;;;;;;4938647;28;20035;-77
2023/08/05 03:42:50;;;;;;;2.28;1.20;;;15.40;99.90;;;;;;4938343;28;20027;-77
2023/08/05 03:45:18;;;;;;;1.90;1.17;;;15.30;99.90;;;;;;4949022;28;20523;-78
2023/08/05 03:47:46;;;;;;;2.25;1.10;;;15.20;99.90;;;;;;4939652;28;20034;-77
2023/08/05 03:50:13;;;;;;;3.50;1.42;;;15.20;99.90;;;;;;4959156;28;20047;-77
2023/08/05 03:52:39;;;;;;;1.73;1.10;;;15.10;99.90;;;;;;4952035;28;20588;-76
2023/08/05 03:55:06;;;;;;;5.15;1.60;;;15.10;99.90;;;;;;4944693;28;20060;-78
2023/08/05 03:57:33;;;;;;;2.80;1.90;;;15.00;99.90;;;;;;4920837;28;20031;-77
2023/08/05 04:00:00;;;;;;;2.60;1.67;;;15.00;99.90;;;;;;4963644;28;23268;-78
2023/08/05 04:02:29;;;;;;;3.25;1.73;;;15.00;99.90;;;;;;4923938;28;20045;-78
2023/08/05 04:04:56;;;;;;;2.08;1.50;;;15.00;99.90;;;;;;4938933;28;20027;-77
2023/08/05 04:07:24;;;;;;;3.88;1.77;;;14.90;99.90;;;;;;4955676;28;20195;-79
2023/08/05 04:09:53;;;;;;;4.60;1.67;;;14.90;99.90;;;;;;4954296;28;20441;-78
2023/08/05 04:12:20;;;;;;;2.63;1.65;;;14.90;99.90;;;;;;4938277;28;20042;-78
2023/08/05 04:14:46;;;;;;;3.00;1.55;;;15.00;99.90;;;;;;4923379;28;20046;-78
2023/08/05 04:17:14;;;;;;;2.25;1.60;;;15.00;99.90;;;;;;4923026;28;20035;-78
2023/08/05 04:19:42;;;;;;;3.05;1.55;;;15.00;99.90;;;;;;4946723;28;20042;-77
2023/08/05 04:22:09;;;;;;;3.47;1.60;;;15.10;99.90;;;;;;4957319;28;20388;-76
2023/08/05 04:24:36;;;;;;;4.15;1.55;;;15.10;99.90;;;;;;4961443;28;20818;-76
2023/08/05 04:27:03;;;;;;;3.97;1.83;;;15.20;99.90;;;;;;4936940;28;20039;-76
2023/08/05 04:29:29;;;;;;;4.40;1.65;;;15.30;99.90;;;;;;4949299;28;20123;-76
2023/08/05 04:31:56;;;;;;;4.68;1.90;;;15.30;99.90;;;;;;4924303;28;20417;-74
2023/08/05 04:34:25;;;;;;;3.50;1.80;;;15.40;99.90;;;;;;4955428;28;20047;-78
2023/08/05 04:36:52;;;;;;;2.25;1.63;;;15.50;99.90;;;;;;4938775;28;20038;-77
2023/08/05 04:39:19;;;;;;;3.97;1.65;;;15.50;99.90;;;;;;4921446;28;20035;-77
2023/08/05 04:41:45;;;;;;;3.15;1.50;;;15.60;99.90;;;;;;4931658;28;20043;-77
2023/08/05 04:44:12;;;;;;;4.22;1.70;;;15.70;99.90;;;;;;4954087;28;20035;-77
2023/08/05 04:46:38;;;;;;;4.07;1.88;;;15.70;99.90;;;;;;4936635;28;20038;-77
2023/08/05 04:49:07;;;;;;;2.70;1.70;;;15.70;99.90;;;;;;4936543;28;20035;-77
2023/08/05 04:51:37;;;;;;;3.60;1.63;;;15.80;99.90;;;;;;4933583;28;20043;-77
2023/08/05 04:54:04;;;;;;;3.53;1.90;;;15.80;99.90;;;;;;4933873;28;20038;-78
2023/08/05 04:56:31;;;;;;;4.05;2.15;;;15.80;99.90;;;;;;4945518;28;20035;-78
2023/08/05 04:58:57;;;;;;;3.33;2.28;;;15.80;99.90;;;;;;4921613;28;20038;-76
2023/08/05 05:01:24;;;;;;;2.35;1.90;;;15.80;99.90;;;;;;4936704;28;20046;-77
2023/08/05 05:03:51;;;;;;;3.00;2.17;;;15.90;99.90;;;;;;4938617;28;20031;-78
2023/08/05 05:06:18;;;;;;;3.72;2.17;;;15.90;99.90;;;;;;4906673;28;20035;-77
2023/08/05 05:08:44;;;;;;;3.55;2.67;;;15.90;99.90;;;;;;4919747;28;20041;-77
2023/08/05 05:11:10;;;;;;;2.97;2.13;;;15.90;99.90;;;;;;4945359;28;20097;-75
2023/08/05 05:13:38;;;;;;;2.75;2.13;;;15.90;99.90;;;;;;4935098;28;20987;-76
2023/08/05 05:16:04;;;;;;;3.38;2.42;;;15.90;99.90;;;;;;4922079;28;20054;-74
2023/08/05 05:18:33;;;;;;;3.80;2.50;;;15.90;99.90;;;;;;4954391;28;20317;-77
2023/08/05 05:21:00;;;;;;;5.07;2.33;;;15.90;99.90;;;;;;4952481;28;20031;-76
2023/08/05 05:23:27;;;;;;;5.88;2.90;;;16.00;99.90;;;;;;4923106;28;20057;-76
2023/08/05 05:25:53;;;;;;;2.45;2.15;;;16.00;99.90;;;;;;4937018;28;20050;-76
2023/08/05 05:28:19;;;;;;;3.30;2.38;;;16.00;99.90;;;;;;4936513;28;20659;-75
2023/08/05 05:30:46;;;;;;;3.67;3.05;;;16.10;99.90;;;;;;4920817;28;20433;-76
2023/08/05 05:33:12;;;;;;;3.95;3.25;;;16.10;99.90;;;;;;4934516;28;20034;-75
2023/08/05 05:35:38;;;;;;;3.17;2.30;;;16.10;99.90;;;;;;4949339;28;20045;-75
2023/08/05 05:38:05;;;;;;;5.95;2.80;;;16.20;99.90;;;;;;4921303;28;20044;-76
2023/08/05 05:40:39;;;;;;;2.78;2.45;;;16.30;99.90;;;;;;4954392;28;20382;-76
2023/08/05 05:43:06;;;;;;;5.35;2.83;;;16.30;99.90;;;;;;4956342;28;20033;-75
2023/08/05 05:45:37;;;;;;;3.03;2.50;;;16.40;99.90;;;;;;4954473;28;20039;-76
2023/08/05 05:48:03;;;;;;;4.20;3.03;;;16.50;99.90;;;;;;4937022;28;20528;-75
2023/08/05 05:50:30;;;;;;;5.20;4.28;;;16.60;99.90;;;;;;4919681;28;20049;-75
2023/08/05 05:52:56;;;;;;;5.65;3.67;;;16.60;99.90;;;;;;4944548;28;20030;-75
2023/08/05 05:55:22;;;;;;;6.03;5.43;;;16.70;99.90;;;;;;4933349;28;20034;-75
2023/08/05 05:57:49;;;;;;;5.68;4.53;;;16.70;99.90;;;;;;4945880;28;20038;-76
2023/08/05 06:00:15;;;;;;;5.95;4.43;;;16.70;99.90;;;;;;4953086;28;20040;-75
2023/08/05 06:02:43;;;;;;;7.50;5.20;;;16.70;99.90;;;;;;4938351;28;20038;-76
2023/08/05 06:05:09;;;;;;;5.93;4.18;;;16.70;99.90;;;;;;4956271;28;20031;-77
2023/08/05 06:07:35;;;;;;;7.25;4.63;;;16.70;99.90;;;;;;4956434;28;20033;-76
2023/08/05 06:10:02;;;;;;;4.43;3.75;;;16.70;99.90;;;;;;4909007;28;20050;-76
2023/08/05 06:12:32;;;;;;;5.28;4.25;;;16.80;99.90;;;;;;4959766;28;20039;-76
2023/08/05 06:15:02;;;;;;;5.40;3.95;;;16.80;99.90;;;;;;4939876;28;20032;-77
2023/08/05 06:17:28;;;;;;;4.97;3.95;;;16.90;99.90;;;;;;4949665;28;20035;-76
2023/08/05 06:19:54;;;;;;;7.28;4.78;;;16.90;99.90;;;;;;4935480;28;20039;-76
2023/08/05 06:22:21;;;;;;;6.68;4.32;;;17.00;99.90;;;;;;4951733;28;20042;-76
2023/08/05 06:24:48;;;;;;;6.88;4.32;;;17.10;99.90;;;;;;4968689;28;20043;-76
2023/08/05 06:27:14;;;;;;;4.43;4.00;;;17.10;99.90;;;;;;4943619;28;20039;-75
2023/08/05 06:29:40;;;;;;;6.00;4.60;;;17.20;99.90;;;;;;4957818;28;20054;-75
2023/08/05 06:32:07;;;;;;;6.70;4.95;;;17.30;99.90;;;;;;4957621;28;20034;-76
2023/08/05 06:34:33;;;;;;;5.45;4.95;;;17.30;99.90;;;;;;4940631;28;20560;-76
2023/08/05 06:37:00;;;;;;;7.10;5.13;;;17.40;99.90;;;;;;4940877;28;20043;-75
2023/08/05 06:39:26;;;;;;;8.38;5.68;;;17.40;99.90;;;;;;4956615;28;20041;-75
2023/08/05 06:41:53;;;;;;;7.47;5.05;;;17.50;99.90;;;;;;4937787;28;20513;-76
2023/08/05 06:44:21;;;;;;;5.82;5.07;;;17.70;99.90;;;;;;4938554;28;20037;-74
2023/08/05 06:46:48;;;;;;;6.13;4.65;;;17.80;99.90;;;;;;4922376;28;20047;-76
2023/08/05 06:49:15;;;;;;;5.88;4.90;;;18.00;99.90;;;;;;4957845;28;20383;-75
2023/08/05 06:51:41;;;;;;;7.40;4.55;;;18.10;99.90;;;;;;4925430;28;20030;-76
2023/08/05 06:54:10;;;;;;;7.82;5.15;;;18.30;99.90;;;;;;4940637;28;20551;-76
2023/08/05 06:56:37;;;;;;;9.23;5.55;;;18.40;99.90;;;;;;4921754;28;20047;-76
2023/08/05 06:59:03;;;;;;;6.82;4.80;;;18.50;99.90;;;;;;4938484;28;20390;-76
2023/08/05 07:01:30;;;;;;;7.10;4.60;;;18.60;99.90;;;;;;4947957;28;20353;-74
2023/08/05 07:03:56;;;;;;;6.07;4.50;;;18.70;99.90;;;;;;4937884;28;20042;-77
2023/08/05 07:06:23;;;;;;;5.97;4.50;;;18.90;99.90;;;;;;4951605;28;20042;-76
2023/08/05 07:08:51;;;;;;;8.70;4.97;;;19.00;99.90;;;;;;4958694;28;20026;-76
2023/08/05 07:11:17;;;;;;;8.52;6.00;;;19.10;99.90;;;;;;4955461;28;21125;-75
2023/08/05 07:13:44;;;;;;;8.98;5.13;;;19.10;99.90;;;;;;4938079;28;20046;-76
2023/08/05 07:16:10;;;;;;;7.28;5.75;;;19.20;99.90;;;;;;4954643;28;20035;-75
2023/08/05 07:18:36;;;;;;;7.68;6.00;;;19.30;99.90;;;;;;4907471;28;20040;-76
2023/08/05 07:21:03;;;;;;;8.52;7.05;;;19.40;99.90;;;;;;4922171;28;20032;-75
2023/08/05 07:23:29;;;;;;;9.85;6.47;;;19.40;99.90;;;;;;4924881;28;21391;-77
2023/08/05 07:26:00;;;;;;;7.10;5.93;;;19.40;99.90;;;;;;4935484;28;20039;-77
2023/08/05 07:28:27;;;;;;;8.93;7.32;;;19.30;99.90;;;;;;4937606;28;20051;-75
2023/08/05 07:31:02;;;;;;;6.25;5.53;;;19.10;99.90;;;;;;4964671;28;20050;-75
2023/08/05 07:33:29;;;;;;;8.30;7.30;;;19.00;99.90;;;;;;4955843;28;20132;-76
2023/08/05 07:35:56;;;;;;;12.63;9.15;;;19.10;99.90;;;;;;4923826;28;20465;-75
2023/08/05 07:38:25;;;;;;;8.98;7.47;;;19.20;99.90;;;;;;4921696;28;20042;-74
2023/08/05 07:40:55;;;;;;;8.20;7.25;;;19.40;99.90;;;;;;4955249;28;20034;-76
2023/08/05 07:43:24;;;;;;;9.30;7.82;;;19.70;99.90;;;;;;4925936;28;20054;-76
2023/08/05 07:45:50;;;;;;;8.38;7.47;;;20.00;99.90;;;;;;4937134;28;20415;-74
2023/08/05 07:48:17;;;;;;;9.88;6.72;;;20.20;99.90;;;;;;4953434;28;20038;-75
2023/08/05 07:50:43;;;;;;;6.13;5.18;;;20.30;99.90;;;;;;4934481;28;20043;-76
2023/08/05 07:53:13;;;;;;;13.52;7.72;;;20.50;99.90;;;;;;4928669;28;20058;-76
2023/08/05 07:55:42;;;;;;;6.78;5.50;;;20.70;99.90;;;;;;4940511;28;20035;-76
2023/08/05 07:58:08;;;;;;;7.70;5.93;;;20.70;99.90;;;;;;4936543;28;20565;-75
2023/08/05 08:00:35;;;;;;;5.05;4.53;;;20.70;99.90;;;;;;4939711;28;20045;-76
2023/08/05 08:03:01;;;;;;;4.82;4.32;;;20.50;99.90;;;;;;4924764;28;20038;-76
2023/08/05 08:05:27;;;;;;;6.50;4.15;;;20.40;99.90;;;;;;4957833;28;20512;-76
2023/08/05 08:07:56;;;;;;;5.13;4.20;;;20.30;99.90;;;;;;4938436;28;20027;-77
2023/08/05 08:10:25;;;;;;;7.47;5.07;;;20.20;99.90;;;;;;4952498;28;20042;-76
2023/08/05 08:12:54;;;;;;;6.63;4.45;;;20.10;99.90;;;;;;4938522;28;20042;-76
2023/08/05 08:15:21;;;;;;;5.82;4.38;;;20.00;99.90;;;;;;4956459;28;20232;-75
2023/08/05 08:17:47;;;;;;;6.20;4.90;;;19.90;99.90;;;;;;4938822;28;20037;-76
2023/08/05 08:20:14;;;;;;;4.75;3.28;;;19.90;99.90;;;;;;4954498;28;20031;-75
2023/08/05 08:22:40;;;;;;;7.78;4.70;;;20.10;99.90;;;;;;4921985;28;20038;-75
2023/08/05 08:25:07;;;;;;;5.45;4.25;;;20.40;99.90;;;;;;4948306;28;20604;-77
2023/08/05 08:27:33;;;;;;;6.40;3.88;;;20.80;99.90;;;;;;4939331;28;20031;-75
2023/08/05 08:29:59;;;;;;;3.75;3.03;;;21.10;99.90;;;;;;4926543;28;20454;-76
2023/08/05 08:32:26;;;;;;;5.55;3.30;;;21.30;99.90;;;;;;4925045;28;20049;-76
2023/08/05 08:34:52;;;;;;;7.22;3.50;;;21.30;99.90;;;;;;4905286;28;20452;-76
2023/08/05 08:37:18;;;;;;;2.45;1.55;;;21.20;99.90;;;;;;4950918;28;20042;-77
2023/08/05 08:39:45;;;;;;;3.38;1.30;;;21.00;99.90;;;;;;4936949;28;20042;-78
2023/08/05 08:42:11;;;;;;;2.42;1.13;;;20.90;99.90;;;;;;4953661;28;20037;-78
2023/08/05 08:44:40;;;;;;;3.67;1.27;;;20.90;99.90;;;;;;4924101;28;20509;-77
2023/08/05 08:47:17;;;;;;;2.55;1.33;;;21.00;99.90;;;;;;5032470;28;20493;-76
2023/08/05 08:49:46;;;;;;;2.75;1.05;;;21.10;99.90;;;;;;5032025;28;20033;-75
2023/08/05 08:52:20;;;;;;;5.82;3.45;;;21.10;99.90;;;;;;5029383;28;20025;-77
2023/08/05 08:54:50;;;;;;;3.42;2.20;;;21.20;99.90;;;;;;5033723;28;20021;-74
2023/08/05 08:57:16;;;;;;;2.20;1.30;;;21.20;99.90;;;;;;5031206;28;20372;-75
2023/08/05 08:59:43;;;;;;;3.08;1.80;;;21.20;99.90;;;;;;5016831;28;20029;-75
2023/08/05 09:02:15;;;;;;;2.35;1.52;;;21.20;99.90;;;;;;5031394;28;20603;-77
2023/08/05 09:04:44;;;;;;;2.75;2.00;;;21.10;99.90;;;;;;5031978;28;20033;-77
2023/08/05 09:07:11;;;;;;;3.05;1.52;;;21.00;99.90;;;;;;5031793;28;20037;-75
2023/08/05 09:09:38;;;;;;;2.40;1.85;;;20.90;99.90;;;;;;5032537;28;20052;-76
2023/08/05 09:12:04;;;;;;;3.10;1.88;;;20.90;99.90;;;;;;5032559;28;20497;-76
2023/08/05 09:14:31;;;;;;;2.47;1.40;;;20.90;99.90;;;;;;5031120;28;20026;-77
2023/08/05 09:16:59;;;;;;;2.65;1.40;;;21.00;99.90;;;;;;5034426;28;20021;-76
2023/08/05 09:19:29;;;;;;;3.28;1.60;;;21.20;99.90;;;;;;5031065;28;20024;-76
2023/08/05 09:21:59;;;;;;;2.95;1.98;;;21.50;99.90;;;;;;5045051;28;20581;-77
2023/08/05 09:24:26;;;;;;;3.08;1.40;;;21.70;99.90;;;;;;5033193;28;20029;-77
2023/08/05 09:26:57;;;;;;;5.35;2.50;;;21.80;99.90;;;;;;5033291;28;20043;-77
2023/08/05 09:29:25;;;;;;;5.32;2.78;;;22.00;99.90;;;;;;5030858;28;20048;-78
2023/08/05 09:31:56;;;;;;;2.80;1.25;;;22.30;99.90;;;;;;5030537;28;20025;-75
2023/08/05 09:34:32;;;;;;;3.22;1.63;;;22.30;99.90;;;;;;5031053;28;20041;-74
2023/08/05 09:37:00;;;;;;;2.38;1.33;;;22.30;99.90;;;;;;5031294;28;20064;-76
2023/08/05 09:39:42;;;;;;;1.95;1.20;;;22.50;99.90;;;;;;5031504;28;20032;-78
2023/08/05 09:42:19;;;;;;;2.40;0.70;;;22.80;99.90;;;;;;5031769;28;20030;-75
2023/08/05 09:44:47;;;;;;;3.22;1.08;;;23.20;99.90;;;;;;5015541;28;20368;-77
2023/08/05 09:47:20;;;;;;;3.13;1.90;;;23.30;99.90;;;;;;5015171;28;20033;-77
2023/08/05 09:49:51;;;;;;;2.42;1.55;;;23.40;99.90;;;;;;5032369;28;20037;-77
2023/08/05 09:52:20;;;;;;;2.73;1.57;;;23.50;99.90;;;;;;5028917;28;20017;-76
2023/08/05 09:54:59;;;;;;;3.63;1.90;;;23.50;99.90;;;;;;5031583;28;20493;-76
2023/08/05 09:57:26;;;;;;;3.90;2.65;;;23.50;99.90;;;;;;5022626;28;20357;-78
2023/08/05 09:59:53;;;;;;;2.83;1.75;;;23.40;99.90;;;;;;5018631;28;20484;-75
2023/08/05 10:02:25;;;;;;;2.83;1.20;;;23.30;99.90;;;;;;5017490;28;20037;-77
2023/08/05 10:04:53;;;;;;;2.45;1.17;;;23.40;99.90;;;;;;5017374;28;20041;-77
2023/08/05 10:07:23;;;;;;;1.75;1.30;;;23.60;99.90;;;;;;5015747;28;20503;-75
2023/08/05 10:09:51;;;;;;;2.45;1.52;;;24.00;99.90;;;;;;5018780;28;20029;-76
2023/08/05 10:12:30;;;;;;;4.70;2.65;;;24.30;99.90;;;;;;5020274;28;20029;-77
2023/08/05 10:14:59;;;;;;;2.75;1.48;;;24.50;99.90;;;;;;5018150;28;20017;-77
2023/08/05 10:17:26;;;;;;;2.95;1.10;;;24.50;99.90;;;;;;5001214;28;20036;-75
2023/08/05 10:19:53;;;;;;;1.20;0.70;;;24.40;99.90;;;;;;5018647;28;20026;-75
2023/08/05 10:22:24;;;;;;;0.90;0.65;;;24.30;99.90;;;;;;5016174;28;20029;-76
2023/08/05 10:24:54;;;;;;;1.50;0.90;;;24.20;99.90;;;;;;5017854;28;20519;-76
2023/08/05 10:27:42;;;;;;;2.85;1.08;;;24.10;99.90;;;;;;5018226;28;20042;-77
2023/08/05 10:30:09;;;;;;;1.58;0.80;;;23.80;99.90;;;;;;5000363;28;20038;-79
2023/08/05 10:32:52;;;;;;;2.08;1.13;;;23.70;99.90;;;;;;5019789;28;20043;-76
2023/08/05 10:35:28;;;;;;;2.63;1.15;;;23.60;99.90;;;;;;5018017;28;20025;-75
2023/08/05 10:38:16;;;;;;;1.90;1.25;;;23.60;99.90;;;;;;5015141;28;20034;-78
2023/08/05 10:40:49;;;;;;;3.28;1.50;;;23.50;99.90;;;;;;5017130;28;20042;-75
2023/08/05 10:43:33;;;;;;;2.92;1.70;;;23.60;99.90;;;;;;5017176;28;20060;-75
2023/08/05 10:46:01;;;;;;;3.03;1.67;;;23.60;99.90;;;;;;5018330;28;20033;-75
2023/08/05 10:48:35;;;;;;;2.00;1.10;;;23.50;99.90;;;;;;4998266;28;20037;-78
2023/08/05 10:51:22;;;;;;;2.33;1.40;;;23.40;99.90;;;;;;5009542;28;20025;-78
2023/08/05 10:53:55;;;;;;;2.40;1.45;;;23.30;99.90;;;;;;5017816;28;20040;-78
2023/08/05 10:56:32;;;;;;;1.67;1.05;;;23.10;99.90;;;;;;5015567;28;20388;-78
2023/08/05 10:59:01;;;;;;;2.28;1.10;;;23.10;99.90;;;;;;5017828;28;20022;-77
2023/08/05 11:01:56;;;;;;;1.42;1.02;;;23.40;99.90;;;;;;5015230;28;20049;-76
2023/08/05 11:04:30;;;;;;;2.15;1.50;;;23.80;99.90;;;;;;5031552;28;20033;-76
2023/08/05 11:06:59;;;;;;;1.90;1.15;;;23.90;99.90;;;;;;5012782;28;20037;-76
2023/08/05 11:09:26;;;;;;;1.92;0.90;;;23.70;99.90;;;;;;5026273;28;20029;-75
2023/08/05 11:11:53;;;;;;;2.38;0.90;;;23.40;99.90;;;;;;5015873;28;20468;-76
2023/08/05 11:14:19;;;;;;;1.48;0.80;;;23.10;99.90;;;;;;5017330;28;20570;-76
2023/08/05 11:16:47;;;;;;;2.67;1.05;;;22.90;99.90;;;;;;5015928;28;20029;-75
2023/08/05 11:19:13;;;;;;;1.98;0.80;;;23.00;99.90;;;;;;5014977;28;20037;-75
2023/08/05 11:21:44;;;;;;;2.28;0.88;;;23.30;99.90;;;;;;4997929;28;20025;-75
2023/08/05 11:24:18;;;;;;;1.42;0.98;;;23.90;99.90;;;;;;5014990;28;20034;-75
2023/08/05 11:26:46;;;;;;;2.88;0.90;;;24.80;99.90;;;;;;5010517;28;20512;-76
2023/08/05 11:29:16;;;;;;;1.92;0.90;;;25.50;99.90;;;;;;5010392;28;20037;-75
2023/08/05 11:31:51;;;;;;;1.50;0.80;;;26.20;99.90;;;;;;4993747;28;20029;-75
2023/08/05 11:34:22;;;;;;;1.60;0.80;;;26.60;99.90;;;;;;5015929;28;20017;-75
2023/08/05 11:36:56;;;;;;;2.50;1.13;;;26.60;99.90;;;;;;5012709;28;20045;-76
2023/08/05 11:39:24;;;;;;;1.70;0.90;;;26.70;99.90;;;;;;4996938;28;20117;-75
2023/08/05 11:41:51;;;;;;;1.35;0.85;;;26.70;99.90;;;;;;5012692;28;20048;-75
2023/08/05 11:44:18;;;;;;;2.22;0.80;;;26.90;99.90;;;;;;5014475;28;20096;-75
2023/08/05 11:46:45;;;;;;;1.17;0.70;;;26.90;99.90;;;;;;5014328;28;20041;-75
2023/08/05 11:49:15;;;;;;;2.70;0.95;;;26.80;99.90;;;;;;5014761;28;20041;-75
2023/08/05 11:51:44;;;;;;;1.55;0.95;;;26.50;99.90;;;;;;5014040;28;20037;-75
2023/08/05 11:54:22;;;;;;;2.15;0.90;;;26.20;99.90;;;;;;5016249;28;20029;-76
2023/08/05 11:56:49;;;;;;;2.25;0.70;;;25.80;99.90;;;;;;5025094;28;20045;-76
2023/08/05 11:59:15;;;;;;;1.10;0.60;;;25.20;99.90;;;;;;5015756;28;20069;-75
2023/08/05 12:01:41;;;;;;;1.25;0.65;;;24.80;99.90;;;;;;5014999;28;20025;-76
2023/08/05 12:04:08;;;;;;;1.65;0.75;;;24.40;99.90;;;;;;5016352;28;20068;-75
2023/08/05 12:06:34;;;;;;;1.08;0.50;;;24.00;99.90;;;;;;5028450;28;20036;-74
2023/08/05 12:09:01;;;;;;;1.52;0.82;;;23.70;99.90;;;;;;4977321;28;20492;-74
2023/08/05 12:11:27;;;;;;;2.28;1.13;;;23.30;99.90;;;;;;5016178;28;20025;-75
2023/08/05 12:13:53;;;;;;;6.20;1.35;;;22.50;99.90;;;;;;5015722;28;20021;-71
2023/08/05 12:16:20;;;;;;;5.65;1.90;;;21.60;99.90;;;;;;5016700;28;20025;-71
2023/08/05 12:18:47;;;;;;;4.68;1.10;;;20.90;99.90;;;;;;4998712;28;20049;-71
2023/08/05 12:21:14;;;;;;;1.05;0.70;;;20.30;99.90;;;;;;5010520;28;20037;-71
2023/08/05 12:23:41;;;;;;;2.33;1.20;;;19.80;99.90;;;;;;5014553;28;20025;-72
2023/08/05 12:26:09;;;;;;;2.85;1.75;;;19.30;99.90;;;;;;5030246;28;20041;-71
2023/08/05 12:28:37;;;;;;;1.30;0.90;;;19.00;99.90;;;;;;5009289;28;20030;-72
2023/08/05 12:31:04;;;;;;;1.55;0.95;;;18.80;99.90;;;;;;4997563;28;20605;-72
2023/08/05 12:33:30;;;;;;;2.30;1.58;;;18.80;99.90;;;;;;5015685;28;20091;-73
2023/08/05 12:35:57;;;;;;;2.60;1.20;;;18.70;99.90;;;;;;5015336;28;20034;-74
2023/08/05 12:38:23;;;;;;;2.33;1.10;;;18.60;99.90;;;;;;5027419;28;20029;-74
2023/08/05 12:40:50;;;;;;;2.38;1.90;;;18.50;99.90;;;;;;5013678;28;20041;-74
2023/08/05 12:43:16;;;;;;;2.00;1.73;;;18.60;99.90;;;;;;5012719;28;21485;-73
2023/08/05 12:45:43;;;;;;;5.07;2.20;;;18.60;99.90;;;;;;5014293;28;20042;-74
2023/08/05 12:48:09;;;;;;;1.65;1.27;;;18.60;99.90;;;;;;4996534;28;20021;-74
2023/08/05 12:50:35;;;;;;;2.03;1.67;;;18.60;99.90;;;;;;5013231;28;20392;-74
2023/08/05 12:53:02;;;;;;;2.28;2.08;;;18.60;99.90;;;;;;5014691;28;20025;-73